sensor_id;sensor_type;location;lat;lon;timestamp;P1;durP1;ratioP1;P2;durP2;ratioP2
9007;SDS011;62813;51.424;6.762;2023-02-15T00:01:36;25.07;;;16.73;;
9007;SDS011;62813;51.424;6.762;2023-02-15T00:04:03;21.67;;;16.13;;
9007;SDS011;62813;51.424;6.762;2023-02-15T00:06:31;23.87;;;16.43;;
9007;SDS011;62813;51.424;6.762;2023-02-15T00:08:58;22.57;;;17.10;;
9007;SDS011;62813;51.424;6.762;2023-02-15T00:11:25;22.27;;;15.97;;
9007;SDS011;62813;51.424;6.762;2023-02-15T00:14:08;25.70;;;16.47;;
9007;SDS011;62813;51.424;6.762;2023-02-15T00:16:39;20.00;;;15.63;;
9007;SDS011;62813;51.424;6.762;2023-02-15T00:19:08;23.57;;;16.27;;
9007;SDS011;62813;51.424;6.762;2023-02-15T00:21:36;25.87;;;15.93;;
9007;SDS011;62813;51.424;6.762;2023-02-15T00:24:04;21.27;;;15.90;;
9007;SDS011;62813;51.424;6.762;2023-02-15T00:26:32;21.43;;;16.27;;
9007;SDS011;62813;51.424;6.762;2023-02-15T00:28:59;22.57;;;16.47;;
9007;SDS011;62813;51.424;6.762;2023-02-15T00:31:29;21.80;;;16.80;;
9007;SDS011;62813;51.424;6.762;2023-02-15T00:34:11;22.20;;;16.63;;
9007;SDS011;62813;51.424;6.762;2023-02-15T00:36:38;21.23;;;17.00;;
9007;SDS011;62813;51.424;6.762;2023-02-15T00:39:06;21.43;;;16.07;;
9007;SDS011;62813;51.424;6.762;2023-02-15T00:41:33;24.47;;;17.40;;
9007;SDS011;62813;51.424;6.762;2023-02-15T00:44:00;24.47;;;16.27;;
9007;SDS011;62813;51.424;6.762;2023-02-15T00:46:27;23.30;;;17.20;;
9007;SDS011;62813;51.424;6.762;2023-02-15T00:48:54;22.50;;;16.93;;
9007;SDS011;62813;51.424;6.762;2023-02-15T00:51:20;21.13;;;16.33;;
9007;SDS011;62813;51.424;6.762;2023-02-15T00:53:47;20.80;;;16.13;;
9007;SDS011;62813;51.424;6.762;2023-02-15T00:56:14;26.23;;;16.70;;
9007;SDS011;62813;51.424;6.762;2023-02-15T00:58:41;24.00;;;16.77;;
9007;SDS011;62813;51.424;6.762;2023-02-15T01:01:13;24.70;;;17.00;;
9007;SDS011;62813;51.424;6.762;2023-02-15T01:03:42;24.00;;;17.27;;
9007;SDS011;62813;51.424;6.762;2023-02-15T01:06:09;23.47;;;17.57;;
9007;SDS011;62813;51.424;6.762;2023-02-15T01:08:39;24.77;;;16.87;;
9007;SDS011;62813;51.424;6.762;2023-02-15T01:11:06;22.90;;;17.30;;
9007;SDS011;62813;51.424;6.762;2023-02-15T01:13:50;22.87;;;16.23;;
9007;SDS011;62813;51.424;6.762;2023-02-15T01:16:19;24.13;;;17.10;;
9007;SDS011;62813;51.424;6.762;2023-02-15T01:18:47;22.07;;;16.80;;
9007;SDS011;62813;51.424;6.762;2023-02-15T01:21:15;24.07;;;17.87;;
9007;SDS011;62813;51.424;6.762;2023-02-15T01:23:44;23.87;;;17.47;;
9007;SDS011;62813;51.424;6.762;2023-02-15T01:26:11;22.13;;;16.97;;
9007;SDS011;62813;51.424;6.762;2023-02-15T01:28:39;24.73;;;16.73;;
9007;SDS011;62813;51.424;6.762;2023-02-15T01:31:09;25.73;;;18.90;;
9007;SDS011;62813;51.424;6.762;2023-02-15T01:33:41;22.37;;;16.43;;
9007;SDS011;62813;51.424;6.762;2023-02-15T01:36:08;26.80;;;19.00;;
9007;SDS011;62813;51.424;6.762;2023-02-15T01:38:35;25.77;;;18.03;;
9007;SDS011;62813;51.424;6.762;2023-02-15T01:41:02;24.50;;;18.50;;
9007;SDS011;62813;51.424;6.762;2023-02-15T01:43:50;24.77;;;17.93;;
9007;SDS011;62813;51.424;6.762;2023-02-15T01:46:28;25.53;;;17.47;;
9007;SDS011;62813;51.424;6.762;2023-02-15T01:49:11;23.47;;;17.60;;
9007;SDS011;62813;51.424;6.762;2023-02-15T01:51:41;25.87;;;17.57;;
9007;SDS011;62813;51.424;6.762;2023-02-15T01:54:24;23.47;;;18.13;;
9007;SDS011;62813;51.424;6.762;2023-02-15T01:57:00;25.57;;;17.93;;
9007;SDS011;62813;51.424;6.762;2023-02-15T01:59:30;22.30;;;16.83;;
9007;SDS011;62813;51.424;6.762;2023-02-15T02:01:58;24.17;;;17.83;;
9007;SDS011;62813;51.424;6.762;2023-02-15T02:04:35;24.47;;;17.40;;
9007;SDS011;62813;51.424;6.762;2023-02-15T02:07:10;25.23;;;18.73;;
9007;SDS011;62813;51.424;6.762;2023-02-15T02:09:40;24.27;;;18.13;;
9007;SDS011;62813;51.424;6.762;2023-02-15T02:12:08;25.10;;;17.90;;
9007;SDS011;62813;51.424;6.762;2023-02-15T02:14:35;25.10;;;17.53;;
9007;SDS011;62813;51.424;6.762;2023-02-15T02:28:41;24.57;;;17.63;;
9007;SDS011;62813;51.424;6.762;2023-02-15T02:42:37;23.73;;;17.90;;
9007;SDS011;62813;51.424;6.762;2023-02-15T02:45:13;26.13;;;18.93;;
9007;SDS011;62813;51.424;6.762;2023-02-15T02:47:47;26.37;;;18.53;;
9007;SDS011;62813;51.424;6.762;2023-02-15T02:50:20;24.83;;;17.30;;
9007;SDS011;62813;51.424;6.762;2023-02-15T02:52:50;24.80;;;18.00;;
9007;SDS011;62813;51.424;6.762;2023-02-15T02:55:23;26.30;;;19.43;;
9007;SDS011;62813;51.424;6.762;2023-02-15T02:57:55;25.47;;;17.97;;
9007;SDS011;62813;51.424;6.762;2023-02-15T03:00:27;24.97;;;17.70;;
9007;SDS011;62813;51.424;6.762;2023-02-15T03:03:03;24.80;;;18.20;;
9007;SDS011;62813;51.424;6.762;2023-02-15T03:05:52;27.03;;;18.83;;
9007;SDS011;62813;51.424;6.762;2023-02-15T03:08:23;24.77;;;18.23;;
9007;SDS011;62813;51.424;6.762;2023-02-15T03:10:55;25.17;;;17.10;;
9007;SDS011;62813;51.424;6.762;2023-02-15T03:13:24;25.13;;;18.30;;
9007;SDS011;62813;51.424;6.762;2023-02-15T03:15:52;25.60;;;18.63;;
9007;SDS011;62813;51.424;6.762;2023-02-15T03:18:41;28.80;;;20.27;;
9007;SDS011;62813;51.424;6.762;2023-02-15T03:21:21;28.57;;;19.80;;
9007;SDS011;62813;51.424;6.762;2023-02-15T03:23:59;25.53;;;18.67;;
9007;SDS011;62813;51.424;6.762;2023-02-15T03:26:33;27.67;;;19.23;;
9007;SDS011;62813;51.424;6.762;2023-02-15T03:29:03;28.67;;;19.07;;
9007;SDS011;62813;51.424;6.762;2023-02-15T03:31:32;23.17;;;17.47;;
9007;SDS011;62813;51.424;6.762;2023-02-15T03:34:04;28.10;;;19.47;;
9007;SDS011;62813;51.424;6.762;2023-02-15T03:39:26;28.70;;;19.43;;
9007;SDS011;62813;51.424;6.762;2023-02-15T03:42:29;28.93;;;19.20;;
9007;SDS011;62813;51.424;6.762;2023-02-15T03:45:01;26.33;;;18.23;;
9007;SDS011;62813;51.424;6.762;2023-02-15T03:47:42;26.83;;;18.90;;
9007;SDS011;62813;51.424;6.762;2023-02-15T03:50:18;25.57;;;18.50;;
9007;SDS011;62813;51.424;6.762;2023-02-15T03:53:09;28.13;;;18.87;;
9007;SDS011;62813;51.424;6.762;2023-02-15T03:55:40;28.73;;;19.87;;
9007;SDS011;62813;51.424;6.762;2023-02-15T03:58:06;25.50;;;19.27;;
9007;SDS011;62813;51.424;6.762;2023-02-15T04:00:55;24.33;;;18.23;;
9007;SDS011;62813;51.424;6.762;2023-02-15T04:03:55;27.53;;;18.87;;
9007;SDS011;62813;51.424;6.762;2023-02-15T04:06:44;28.17;;;18.47;;
9007;SDS011;62813;51.424;6.762;2023-02-15T04:09:11;26.33;;;18.57;;
9007;SDS011;62813;51.424;6.762;2023-02-15T04:11:57;26.70;;;18.97;;
9007;SDS011;62813;51.424;6.762;2023-02-15T04:14:24;26.73;;;19.37;;
9007;SDS011;62813;51.424;6.762;2023-02-15T04:17:09;27.43;;;19.67;;
9007;SDS011;62813;51.424;6.762;2023-02-15T04:19:36;28.70;;;19.67;;
9007;SDS011;62813;51.424;6.762;2023-02-15T04:22:21;27.10;;;18.87;;
9007;SDS011;62813;51.424;6.762;2023-02-15T04:25:06;25.23;;;19.20;;
9007;SDS011;62813;51.424;6.762;2023-02-15T04:27:43;25.87;;;18.67;;
9007;SDS011;62813;51.424;6.762;2023-02-15T04:30:12;26.87;;;19.23;;
9007;SDS011;62813;51.424;6.762;2023-02-15T04:32:40;24.73;;;18.47;;
9007;SDS011;62813;51.424;6.762;2023-02-15T04:35:07;27.70;;;19.50;;
9007;SDS011;62813;51.424;6.762;2023-02-15T04:37:35;29.70;;;20.43;;
9007;SDS011;62813;51.424;6.762;2023-02-15T04:40:02;27.30;;;19.37;;
9007;SDS011;62813;51.424;6.762;2023-02-15T04:42:29;28.50;;;20.27;;
9007;SDS011;62813;51.424;6.762;2023-02-15T04:44:56;26.10;;;18.47;;
9007;SDS011;62813;51.424;6.762;2023-02-15T04:47:23;25.63;;;19.33;;
9007;SDS011;62813;51.424;6.762;2023-02-15T04:49:49;28.23;;;19.57;;
9007;SDS011;62813;51.424;6.762;2023-02-15T04:52:16;28.80;;;20.00;;
9007;SDS011;62813;51.424;6.762;2023-02-15T04:54:44;26.83;;;18.50;;
9007;SDS011;62813;51.424;6.762;2023-02-15T04:57:11;27.10;;;19.40;;
9007;SDS011;62813;51.424;6.762;2023-02-15T04:59:37;27.63;;;19.63;;
9007;SDS011;62813;51.424;6.762;2023-02-15T05:02:04;27.40;;;19.40;;
9007;SDS011;62813;51.424;6.762;2023-02-15T05:04:31;26.87;;;19.27;;
9007;SDS011;62813;51.424;6.762;2023-02-15T05:06:57;28.67;;;19.90;;
9007;SDS011;62813;51.424;6.762;2023-02-15T05:09:24;31.37;;;20.20;;
9007;SDS011;62813;51.424;6.762;2023-02-15T05:11:51;24.87;;;19.00;;
9007;SDS011;62813;51.424;6.762;2023-02-15T05:14:17;26.80;;;19.20;;
9007;SDS011;62813;51.424;6.762;2023-02-15T05:16:44;28.33;;;20.43;;
9007;SDS011;62813;51.424;6.762;2023-02-15T05:19:10;28.50;;;19.80;;
9007;SDS011;62813;51.424;6.762;2023-02-15T05:21:37;28.23;;;20.30;;
9007;SDS011;62813;51.424;6.762;2023-02-15T05:24:04;29.00;;;19.70;;
9007;SDS011;62813;51.424;6.762;2023-02-15T05:26:51;27.47;;;19.77;;
9007;SDS011;62813;51.424;6.762;2023-02-15T05:29:36;28.07;;;20.17;;
9007;SDS011;62813;51.424;6.762;2023-02-15T05:32:03;26.47;;;19.50;;
9007;SDS011;62813;51.424;6.762;2023-02-15T05:34:30;28.20;;;19.33;;
9007;SDS011;62813;51.424;6.762;2023-02-15T05:36:57;28.10;;;19.63;;
9007;SDS011;62813;51.424;6.762;2023-02-15T05:39:23;26.77;;;19.17;;
9007;SDS011;62813;51.424;6.762;2023-02-15T05:41:50;28.67;;;19.53;;
9007;SDS011;62813;51.424;6.762;2023-02-15T05:44:16;28.63;;;19.73;;
9007;SDS011;62813;51.424;6.762;2023-02-15T05:46:43;30.27;;;19.27;;
9007;SDS011;62813;51.424;6.762;2023-02-15T05:49:10;28.73;;;18.63;;
9007;SDS011;62813;51.424;6.762;2023-02-15T05:51:37;26.77;;;19.50;;
9007;SDS011;62813;51.424;6.762;2023-02-15T05:54:03;27.87;;;19.57;;
9007;SDS011;62813;51.424;6.762;2023-02-15T05:56:30;26.03;;;19.27;;
9007;SDS011;62813;51.424;6.762;2023-02-15T05:58:56;26.17;;;19.57;;
9007;SDS011;62813;51.424;6.762;2023-02-15T06:01:23;28.67;;;19.03;;
9007;SDS011;62813;51.424;6.762;2023-02-15T06:03:50;26.80;;;19.20;;
9007;SDS011;62813;51.424;6.762;2023-02-15T06:06:17;25.87;;;18.63;;
9007;SDS011;62813;51.424;6.762;2023-02-15T06:08:43;27.33;;;18.90;;
9007;SDS011;62813;51.424;6.762;2023-02-15T06:11:10;28.63;;;19.93;;
9007;SDS011;62813;51.424;6.762;2023-02-15T06:13:37;26.10;;;19.77;;
9007;SDS011;62813;51.424;6.762;2023-02-15T06:16:04;28.83;;;20.67;;
9007;SDS011;62813;51.424;6.762;2023-02-15T06:18:31;27.53;;;19.63;;
9007;SDS011;62813;51.424;6.762;2023-02-15T06:20:59;28.23;;;19.83;;
9007;SDS011;62813;51.424;6.762;2023-02-15T06:23:26;28.73;;;20.27;;
9007;SDS011;62813;51.424;6.762;2023-02-15T06:25:53;32.73;;;21.30;;
9007;SDS011;62813;51.424;6.762;2023-02-15T06:28:19;27.80;;;19.97;;
9007;SDS011;62813;51.424;6.762;2023-02-15T06:30:46;27.83;;;19.83;;
9007;SDS011;62813;51.424;6.762;2023-02-15T06:33:13;29.63;;;19.90;;
9007;SDS011;62813;51.424;6.762;2023-02-15T06:35:39;27.27;;;20.23;;
9007;SDS011;62813;51.424;6.762;2023-02-15T06:38:06;27.77;;;18.83;;
9007;SDS011;62813;51.424;6.762;2023-02-15T06:40:32;25.67;;;18.83;;
9007;SDS011;62813;51.424;6.762;2023-02-15T06:42:59;28.87;;;20.47;;
9007;SDS011;62813;51.424;6.762;2023-02-15T06:45:27;25.10;;;18.90;;
9007;SDS011;62813;51.424;6.762;2023-02-15T06:47:54;27.77;;;18.90;;
9007;SDS011;62813;51.424;6.762;2023-02-15T06:50:20;29.33;;;19.83;;
9007;SDS011;62813;51.424;6.762;2023-02-15T06:52:47;30.60;;;19.37;;
9007;SDS011;62813;51.424;6.762;2023-02-15T06:55:14;27.97;;;19.03;;
9007;SDS011;62813;51.424;6.762;2023-02-15T06:57:40;25.30;;;19.23;;
9007;SDS011;62813;51.424;6.762;2023-02-15T07:00:07;27.53;;;18.30;;
9007;SDS011;62813;51.424;6.762;2023-02-15T07:02:34;27.97;;;20.33;;
9007;SDS011;62813;51.424;6.762;2023-02-15T07:05:01;28.60;;;19.90;;
9007;SDS011;62813;51.424;6.762;2023-02-15T07:07:28;26.27;;;18.53;;
9007;SDS011;62813;51.424;6.762;2023-02-15T07:09:55;27.37;;;19.40;;
9007;SDS011;62813;51.424;6.762;2023-02-15T07:12:21;25.20;;;19.10;;
9007;SDS011;62813;51.424;6.762;2023-02-15T07:15:07;28.77;;;19.17;;
9007;SDS011;62813;51.424;6.762;2023-02-15T07:17:38;30.60;;;20.30;;
9007;SDS011;62813;51.424;6.762;2023-02-15T07:22:39;31.07;;;21.23;;
9007;SDS011;62813;51.424;6.762;2023-02-15T07:25:07;24.67;;;18.73;;
9007;SDS011;62813;51.424;6.762;2023-02-15T07:27:35;27.60;;;20.33;;
9007;SDS011;62813;51.424;6.762;2023-02-15T07:30:02;27.33;;;19.50;;
9007;SDS011;62813;51.424;6.762;2023-02-15T07:32:30;24.43;;;18.60;;
9007;SDS011;62813;51.424;6.762;2023-02-15T07:34:58;27.80;;;19.17;;
9007;SDS011;62813;51.424;6.762;2023-02-15T07:37:25;28.33;;;19.70;;
9007;SDS011;62813;51.424;6.762;2023-02-15T07:39:53;27.07;;;19.90;;
9007;SDS011;62813;51.424;6.762;2023-02-15T07:42:22;30.33;;;19.40;;
9007;SDS011;62813;51.424;6.762;2023-02-15T07:44:49;29.93;;;19.23;;
9007;SDS011;62813;51.424;6.762;2023-02-15T07:47:16;27.03;;;17.93;;
9007;SDS011;62813;51.424;6.762;2023-02-15T07:49:42;27.60;;;19.03;;
9007;SDS011;62813;51.424;6.762;2023-02-15T07:52:09;26.73;;;19.30;;
9007;SDS011;62813;51.424;6.762;2023-02-15T07:54:35;25.03;;;17.93;;
9007;SDS011;62813;51.424;6.762;2023-02-15T07:57:02;24.00;;;17.97;;
9007;SDS011;62813;51.424;6.762;2023-02-15T07:59:29;26.77;;;17.70;;
9007;SDS011;62813;51.424;6.762;2023-02-15T08:01:55;27.10;;;17.87;;
9007;SDS011;62813;51.424;6.762;2023-02-15T08:04:23;23.83;;;17.73;;
9007;SDS011;62813;51.424;6.762;2023-02-15T08:06:52;24.47;;;17.10;;
9007;SDS011;62813;51.424;6.762;2023-02-15T08:09:19;25.47;;;18.07;;
9007;SDS011;62813;51.424;6.762;2023-02-15T08:11:47;25.67;;;17.67;;
9007;SDS011;62813;51.424;6.762;2023-02-15T08:14:15;25.33;;;18.13;;
9007;SDS011;62813;51.424;6.762;2023-02-15T08:16:51;24.27;;;16.20;;
9007;SDS011;62813;51.424;6.762;2023-02-15T08:19:20;25.37;;;17.20;;
9007;SDS011;62813;51.424;6.762;2023-02-15T08:24:17;27.83;;;16.87;;
9007;SDS011;62813;51.424;6.762;2023-02-15T08:26:47;26.77;;;17.80;;
9007;SDS011;62813;51.424;6.762;2023-02-15T08:29:16;23.60;;;16.57;;
9007;SDS011;62813;51.424;6.762;2023-02-15T08:31:45;26.30;;;17.90;;
9007;SDS011;62813;51.424;6.762;2023-02-15T08:34:14;25.30;;;17.57;;
9007;SDS011;62813;51.424;6.762;2023-02-15T08:36:43;24.17;;;17.77;;
9007;SDS011;62813;51.424;6.762;2023-02-15T08:39:11;25.97;;;18.57;;
9007;SDS011;62813;51.424;6.762;2023-02-15T08:41:39;25.73;;;18.37;;
9007;SDS011;62813;51.424;6.762;2023-02-15T08:44:09;22.67;;;16.90;;
9007;SDS011;62813;51.424;6.762;2023-02-15T08:46:37;22.90;;;16.77;;
9007;SDS011;62813;51.424;6.762;2023-02-15T08:49:05;25.47;;;17.77;;
9007;SDS011;62813;51.424;6.762;2023-02-15T08:51:34;23.70;;;17.47;;
9007;SDS011;62813;51.424;6.762;2023-02-15T08:54:03;26.47;;;17.60;;
9007;SDS011;62813;51.424;6.762;2023-02-15T08:56:32;24.30;;;17.37;;
9007;SDS011;62813;51.424;6.762;2023-02-15T08:59:01;25.43;;;17.83;;
9007;SDS011;62813;51.424;6.762;2023-02-15T09:01:29;25.13;;;16.90;;
9007;SDS011;62813;51.424;6.762;2023-02-15T09:03:59;23.33;;;15.97;;
9007;SDS011;62813;51.424;6.762;2023-02-15T09:06:27;21.80;;;16.37;;
9007;SDS011;62813;51.424;6.762;2023-02-15T09:08:54;23.43;;;17.03;;
9007;SDS011;62813;51.424;6.762;2023-02-15T09:11:22;26.63;;;16.60;;
9007;SDS011;62813;51.424;6.762;2023-02-15T09:13:57;22.77;;;16.27;;
9007;SDS011;62813;51.424;6.762;2023-02-15T09:16:32;21.73;;;15.57;;
9007;SDS011;62813;51.424;6.762;2023-02-15T09:19:00;22.67;;;16.03;;
9007;SDS011;62813;51.424;6.762;2023-02-15T09:21:30;27.00;;;16.17;;
9007;SDS011;62813;51.424;6.762;2023-02-15T09:23:59;20.63;;;15.37;;
9007;SDS011;62813;51.424;6.762;2023-02-15T09:26:28;21.10;;;15.33;;
9007;SDS011;62813;51.424;6.762;2023-02-15T09:28:57;26.67;;;16.10;;
9007;SDS011;62813;51.424;6.762;2023-02-15T09:31:30;21.80;;;15.70;;
9007;SDS011;62813;51.424;6.762;2023-02-15T09:34:00;22.60;;;15.63;;
9007;SDS011;62813;51.424;6.762;2023-02-15T09:36:30;21.53;;;15.97;;
9007;SDS011;62813;51.424;6.762;2023-02-15T09:38:59;22.20;;;15.67;;
9007;SDS011;62813;51.424;6.762;2023-02-15T09:47:22;21.10;;;15.57;;
9007;SDS011;62813;51.424;6.762;2023-02-15T09:53:14;20.07;;;15.20;;
9007;SDS011;62813;51.424;6.762;2023-02-15T09:59:19;19.50;;;13.23;;
9007;SDS011;62813;51.424;6.762;2023-02-15T10:01:56;19.57;;;14.40;;
9007;SDS011;62813;51.424;6.762;2023-02-15T10:13:34;21.53;;;13.77;;
9007;SDS011;62813;51.424;6.762;2023-02-15T10:16:18;19.60;;;14.03;;
9007;SDS011;62813;51.424;6.762;2023-02-15T10:21:59;18.83;;;14.97;;
9007;SDS011;62813;51.424;6.762;2023-02-15T10:27:31;20.70;;;13.93;;
9007;SDS011;62813;51.424;6.762;2023-02-15T10:30:12;21.93;;;15.00;;
9007;SDS011;62813;51.424;6.762;2023-02-15T10:38:40;18.57;;;13.33;;
9007;SDS011;62813;51.424;6.762;2023-02-15T10:46:34;20.33;;;14.30;;
9007;SDS011;62813;51.424;6.762;2023-02-15T10:49:19;20.67;;;13.60;;
9007;SDS011;62813;51.424;6.762;2023-02-15T10:55:01;19.20;;;14.40;;
9007;SDS011;62813;51.424;6.762;2023-02-15T10:57:40;19.10;;;14.13;;
9007;SDS011;62813;51.424;6.762;2023-02-15T11:00:27;19.73;;;13.07;;
9007;SDS011;62813;51.424;6.762;2023-02-15T11:08:47;18.80;;;13.80;;
9007;SDS011;62813;51.424;6.762;2023-02-15T11:11:27;20.80;;;13.33;;
9007;SDS011;62813;51.424;6.762;2023-02-15T11:13:59;20.50;;;14.37;;
9007;SDS011;62813;51.424;6.762;2023-02-15T11:16:32;22.57;;;14.80;;
9007;SDS011;62813;51.424;6.762;2023-02-15T11:21:33;20.63;;;13.87;;
9007;SDS011;62813;51.424;6.762;2023-02-15T11:24:09;22.20;;;13.43;;
9007;SDS011;62813;51.424;6.762;2023-02-15T11:26:39;20.27;;;14.20;;
9007;SDS011;62813;51.424;6.762;2023-02-15T11:29:23;24.97;;;14.43;;
9007;SDS011;62813;51.424;6.762;2023-02-15T11:34:55;16.87;;;12.33;;
9007;SDS011;62813;51.424;6.762;2023-02-15T11:43:16;19.73;;;13.17;;
9007;SDS011;62813;51.424;6.762;2023-02-15T11:45:48;20.97;;;13.33;;
9007;SDS011;62813;51.424;6.762;2023-02-15T11:48:15;16.40;;;11.93;;
9007;SDS011;62813;51.424;6.762;2023-02-15T11:50:42;19.63;;;13.30;;
9007;SDS011;62813;51.424;6.762;2023-02-15T11:53:13;17.57;;;12.97;;
9007;SDS011;62813;51.424;6.762;2023-02-15T11:55:45;20.00;;;13.87;;
9007;SDS011;62813;51.424;6.762;2023-02-15T12:01:09;18.17;;;11.63;;
9007;SDS011;62813;51.424;6.762;2023-02-15T12:03:56;19.63;;;13.07;;
9007;SDS011;62813;51.424;6.762;2023-02-15T12:06:34;18.10;;;12.93;;
9007;SDS011;62813;51.424;6.762;2023-02-15T12:09:14;20.23;;;12.30;;
9007;SDS011;62813;51.424;6.762;2023-02-15T12:11:48;22.10;;;13.57;;
9007;SDS011;62813;51.424;6.762;2023-02-15T12:14:15;18.53;;;12.63;;
9007;SDS011;62813;51.424;6.762;2023-02-15T12:16:43;16.27;;;12.07;;
9007;SDS011;62813;51.424;6.762;2023-02-15T12:19:16;16.33;;;12.00;;
9007;SDS011;62813;51.424;6.762;2023-02-15T12:21:57;17.23;;;12.00;;
9007;SDS011;62813;51.424;6.762;2023-02-15T12:24:37;17.83;;;12.90;;
9007;SDS011;62813;51.424;6.762;2023-02-15T12:27:23;17.93;;;12.97;;
9007;SDS011;62813;51.424;6.762;2023-02-15T12:29:59;18.73;;;12.43;;
9007;SDS011;62813;51.424;6.762;2023-02-15T12:32:31;16.27;;;11.10;;
9007;SDS011;62813;51.424;6.762;2023-02-15T12:35:08;17.07;;;11.60;;
9007;SDS011;62813;51.424;6.762;2023-02-15T12:37:43;19.33;;;11.33;;
9007;SDS011;62813;51.424;6.762;2023-02-15T12:40:21;18.80;;;11.90;;
9007;SDS011;62813;51.424;6.762;2023-02-15T12:42:57;16.33;;;10.60;;
9007;SDS011;62813;51.424;6.762;2023-02-15T12:45:25;15.17;;;11.10;;
9007;SDS011;62813;51.424;6.762;2023-02-15T12:50:39;15.93;;;10.90;;
9007;SDS011;62813;51.424;6.762;2023-02-15T12:53:10;17.10;;;11.23;;
9007;SDS011;62813;51.424;6.762;2023-02-15T12:58:22;18.63;;;11.60;;
9007;SDS011;62813;51.424;6.762;2023-02-15T13:04:00;18.83;;;10.47;;
9007;SDS011;62813;51.424;6.762;2023-02-15T13:06:37;19.73;;;10.60;;
9007;SDS011;62813;51.424;6.762;2023-02-15T13:09:15;21.20;;;11.00;;
9007;SDS011;62813;51.424;6.762;2023-02-15T13:11:46;16.97;;;11.30;;
9007;SDS011;62813;51.424;6.762;2023-02-15T13:16:49;16.17;;;10.57;;
9007;SDS011;62813;51.424;6.762;2023-02-15T13:19:22;18.97;;;10.90;;
9007;SDS011;62813;51.424;6.762;2023-02-15T13:21:56;17.43;;;10.53;;
9007;SDS011;62813;51.424;6.762;2023-02-15T13:24:25;22.83;;;11.30;;
9007;SDS011;62813;51.424;6.762;2023-02-15T13:26:56;18.93;;;11.03;;
9007;SDS011;62813;51.424;6.762;2023-02-15T13:29:39;21.17;;;10.70;;
9007;SDS011;62813;51.424;6.762;2023-02-15T13:34:59;16.93;;;10.73;;
9007;SDS011;62813;51.424;6.762;2023-02-15T13:37:37;18.17;;;10.93;;
9007;SDS011;62813;51.424;6.762;2023-02-15T13:56:59;19.27;;;10.10;;
9007;SDS011;62813;51.424;6.762;2023-02-15T13:59:56;17.73;;;10.33;;
9007;SDS011;62813;51.424;6.762;2023-02-15T14:21:34;18.27;;;11.20;;
9007;SDS011;62813;51.424;6.762;2023-02-15T14:24:18;20.10;;;11.00;;
9007;SDS011;62813;51.424;6.762;2023-02-15T14:29:35;18.40;;;10.97;;
9007;SDS011;62813;51.424;6.762;2023-02-15T14:32:12;18.13;;;10.43;;
9007;SDS011;62813;51.424;6.762;2023-02-15T14:35:08;16.07;;;9.90;;
9007;SDS011;62813;51.424;6.762;2023-02-15T14:40:34;22.40;;;11.50;;
9007;SDS011;62813;51.424;6.762;2023-02-15T14:48:46;17.27;;;11.57;;
9007;SDS011;62813;51.424;6.762;2023-02-15T14:54:10;18.50;;;11.07;;
9007;SDS011;62813;51.424;6.762;2023-02-15T15:07:49;17.27;;;10.67;;
9007;SDS011;62813;51.424;6.762;2023-02-15T15:12:47;22.00;;;10.93;;
9007;SDS011;62813;51.424;6.762;2023-02-15T15:25:50;18.60;;;11.00;;
9007;SDS011;62813;51.424;6.762;2023-02-15T15:34:27;21.23;;;11.63;;
9007;SDS011;62813;51.424;6.762;2023-02-15T15:42:28;20.60;;;10.90;;
9007;SDS011;62813;51.424;6.762;2023-02-15T15:45:38;21.27;;;11.77;;
9007;SDS011;62813;51.424;6.762;2023-02-15T15:50:39;17.00;;;10.40;;
9007;SDS011;62813;51.424;6.762;2023-02-15T15:53:06;21.17;;;10.73;;
9007;SDS011;62813;51.424;6.762;2023-02-15T15:55:44;16.50;;;10.80;;
9007;SDS011;62813;51.424;6.762;2023-02-15T15:58:14;18.90;;;10.87;;
9007;SDS011;62813;51.424;6.762;2023-02-15T16:00:46;24.90;;;11.10;;
9007;SDS011;62813;51.424;6.762;2023-02-15T16:05:50;22.33;;;11.53;;
9007;SDS011;62813;51.424;6.762;2023-02-15T16:08:28;17.10;;;11.47;;
9007;SDS011;62813;51.424;6.762;2023-02-15T16:10:57;18.33;;;10.53;;
9007;SDS011;62813;51.424;6.762;2023-02-15T16:13:25;16.17;;;10.27;;
9007;SDS011;62813;51.424;6.762;2023-02-15T16:15:53;19.57;;;11.10;;
9007;SDS011;62813;51.424;6.762;2023-02-15T16:18:22;16.73;;;11.17;;
9007;SDS011;62813;51.424;6.762;2023-02-15T16:20:52;17.97;;;11.27;;
9007;SDS011;62813;51.424;6.762;2023-02-15T16:23:36;16.17;;;11.20;;
9007;SDS011;62813;51.424;6.762;2023-02-15T16:29:36;19.07;;;11.73;;
9007;SDS011;62813;51.424;6.762;2023-02-15T16:32:15;16.43;;;11.87;;
9007;SDS011;62813;51.424;6.762;2023-02-15T16:34:51;20.27;;;12.90;;
9007;SDS011;62813;51.424;6.762;2023-02-15T16:37:20;17.70;;;12.43;;
9007;SDS011;62813;51.424;6.762;2023-02-15T16:39:49;19.03;;;12.17;;
9007;SDS011;62813;51.424;6.762;2023-02-15T16:42:16;19.10;;;12.90;;
9007;SDS011;62813;51.424;6.762;2023-02-15T16:44:45;19.77;;;12.53;;
9007;SDS011;62813;51.424;6.762;2023-02-15T16:47:17;20.67;;;12.30;;
9007;SDS011;62813;51.424;6.762;2023-02-15T16:49:48;20.33;;;12.77;;
9007;SDS011;62813;51.424;6.762;2023-02-15T16:52:19;20.93;;;13.10;;
9007;SDS011;62813;51.424;6.762;2023-02-15T16:54:50;20.90;;;12.23;;
9007;SDS011;62813;51.424;6.762;2023-02-15T16:57:21;19.67;;;12.77;;
9007;SDS011;62813;51.424;6.762;2023-02-15T16:59:52;18.17;;;12.77;;
9007;SDS011;62813;51.424;6.762;2023-02-15T17:02:22;21.37;;;13.40;;
9007;SDS011;62813;51.424;6.762;2023-02-15T17:05:16;19.13;;;13.80;;
9007;SDS011;62813;51.424;6.762;2023-02-15T17:07:49;21.73;;;12.33;;
9007;SDS011;62813;51.424;6.762;2023-02-15T17:10:32;17.93;;;13.67;;
9007;SDS011;62813;51.424;6.762;2023-02-15T17:13:04;19.67;;;13.40;;
9007;SDS011;62813;51.424;6.762;2023-02-15T17:15:38;20.47;;;13.83;;
9007;SDS011;62813;51.424;6.762;2023-02-15T17:18:17;17.10;;;12.23;;
9007;SDS011;62813;51.424;6.762;2023-02-15T17:20:47;17.87;;;12.13;;
9007;SDS011;62813;51.424;6.762;2023-02-15T17:23:23;18.00;;;12.90;;
9007;SDS011;62813;51.424;6.762;2023-02-15T17:25:55;19.33;;;12.00;;
9007;SDS011;62813;51.424;6.762;2023-02-15T17:28:27;19.70;;;13.70;;
9007;SDS011;62813;51.424;6.762;2023-02-15T17:30:57;20.63;;;12.70;;
9007;SDS011;62813;51.424;6.762;2023-02-15T17:33:26;17.03;;;12.23;;
9007;SDS011;62813;51.424;6.762;2023-02-15T17:36:02;21.73;;;12.83;;
9007;SDS011;62813;51.424;6.762;2023-02-15T17:43:50;17.47;;;11.87;;
9007;SDS011;62813;51.424;6.762;2023-02-15T17:46:16;20.27;;;13.03;;
9007;SDS011;62813;51.424;6.762;2023-02-15T17:48:46;15.80;;;11.37;;
9007;SDS011;62813;51.424;6.762;2023-02-15T17:51:14;19.40;;;13.10;;
9007;SDS011;62813;51.424;6.762;2023-02-15T17:53:42;17.47;;;12.57;;
9007;SDS011;62813;51.424;6.762;2023-02-15T17:56:32;19.70;;;13.53;;
9007;SDS011;62813;51.424;6.762;2023-02-15T17:58:59;18.57;;;12.90;;
9007;SDS011;62813;51.424;6.762;2023-02-15T18:01:25;19.53;;;13.10;;
9007;SDS011;62813;51.424;6.762;2023-02-15T18:04:11;18.20;;;12.63;;
9007;SDS011;62813;51.424;6.762;2023-02-15T18:06:57;17.93;;;12.43;;
9007;SDS011;62813;51.424;6.762;2023-02-15T18:09:44;18.57;;;12.87;;
9007;SDS011;62813;51.424;6.762;2023-02-15T18:12:30;17.20;;;12.20;;
9007;SDS011;62813;51.424;6.762;2023-02-15T18:14:59;22.07;;;12.70;;
9007;SDS011;62813;51.424;6.762;2023-02-15T18:17:27;17.17;;;12.10;;
9007;SDS011;62813;51.424;6.762;2023-02-15T18:19:58;21.63;;;13.13;;
9007;SDS011;62813;51.424;6.762;2023-02-15T18:22:26;19.00;;;12.70;;
9007;SDS011;62813;51.424;6.762;2023-02-15T18:24:54;18.20;;;12.93;;
9007;SDS011;62813;51.424;6.762;2023-02-15T18:27:21;20.80;;;12.67;;